sensor_id;sensor_type;location;lat;lon;timestamp;pressure;altitude;pressure_sealevel;temperature;humidity
7834;BME280;3962;42.696;23.354;2023-04-01T00:01:06;94322.50;;;10.34;71.64
7834;BME280;3962;42.696;23.354;2023-04-01T00:03:33;94320.84;;;10.25;72.33
7834;BME280;3962;42.696;23.354;2023-04-01T00:06:01;94308.25;;;10.19;72.51
7834;BME280;3962;42.696;23.354;2023-04-01T00:08:29;94312.06;;;10.17;73.03
7834;BME280;3962;42.696;23.354;2023-04-01T00:10:56;94315.72;;;10.16;73.22
7834;BME280;3962;42.696;23.354;2023-04-01T00:13:24;94324.69;;;10.15;72.86
7834;BME280;3962;42.696;23.354;2023-04-01T00:15:53;94324.03;;;10.13;73.00
7834;BME280;3962;42.696;23.354;2023-04-01T00:18:20;94324.03;;;10.13;73.32
7834;BME280;3962;42.696;23.354;2023-04-01T00:20:50;94316.41;;;10.10;73.54
7834;BME280;3962;42.696;23.354;2023-04-01T00:23:19;94318.56;;;10.06;73.44
7834;BME280;3962;42.696;23.354;2023-04-01T00:25:46;94318.72;;;10.13;73.39
7834;BME280;3962;42.696;23.354;2023-04-01T00:28:14;94312.56;;;10.12;73.29
7834;BME280;3962;42.696;23.354;2023-04-01T00:30:41;94314.03;;;10.15;73.63
7834;BME280;3962;42.696;23.354;2023-04-01T00:33:10;94310.72;;;10.13;73.87
7834;BME280;3962;42.696;23.354;2023-04-01T00:35:37;94310.22;;;10.17;73.50
7834;BME280;3962;42.696;23.354;2023-04-01T00:38:04;94308.75;;;10.31;73.44
7834;BME280;3962;42.696;23.354;2023-04-01T00:40:33;94312.84;;;10.41;72.93
7834;BME280;3962;42.696;23.354;2023-04-01T00:43:01;94297.72;;;10.50;71.78
7834;BME280;3962;42.696;23.354;2023-04-01T00:45:31;94294.88;;;10.51;71.25
7834;BME280;3962;42.696;23.354;2023-04-01T00:48:00;94282.91;;;10.47;71.73
7834;BME280;3962;42.696;23.354;2023-04-01T00:50:31;94281.28;;;10.38;71.98
7834;BME280;3962;42.696;23.354;2023-04-01T00:53:00;94280.66;;;10.28;72.62
7834;BME280;3962;42.696;23.354;2023-04-01T00:55:29;94278.00;;;10.28;73.21
7834;BME280;3962;42.696;23.354;2023-04-01T00:57:59;94275.84;;;10.32;73.44
7834;BME280;3962;42.696;23.354;2023-04-01T01:00:26;94266.34;;;10.29;73.18
7834;BME280;3962;42.696;23.354;2023-04-01T01:02:53;94259.69;;;10.33;73.55
7834;BME280;3962;42.696;23.354;2023-04-01T01:05:34;94265.50;;;10.37;73.84
7834;BME280;3962;42.696;23.354;2023-04-01T01:08:13;94248.41;;;10.31;73.41
7834;BME280;3962;42.696;23.354;2023-04-01T01:10:43;94259.50;;;10.43;72.80
7834;BME280;3962;42.696;23.354;2023-04-01T01:13:17;94242.03;;;10.48;73.15
7834;BME280;3962;42.696;23.354;2023-04-01T01:15:50;94242.19;;;10.55;72.98
7834;BME280;3962;42.696;23.354;2023-04-01T01:18:24;94242.16;;;10.63;71.97
7834;BME280;3962;42.696;23.354;2023-04-01T01:24:17;94231.16;;;10.66;71.59
7834;BME280;3962;42.696;23.354;2023-04-01T01:26:54;94220.03;;;10.62;71.77
7834;BME280;3962;42.696;23.354;2023-04-01T01:30:03;94229.34;;;10.66;71.73
7834;BME280;3962;42.696;23.354;2023-04-01T01:32:51;94221.16;;;10.68;71.46
7834;BME280;3962;42.696;23.354;2023-04-01T01:35:24;94226.00;;;10.64;71.42
7834;BME280;3962;42.696;23.354;2023-04-01T01:37:55;94214.91;;;10.53;71.16
7834;BME280;3962;42.696;23.354;2023-04-01T01:40:26;94213.63;;;10.49;71.31
7834;BME280;3962;42.696;23.354;2023-04-01T01:42:56;94212.00;;;10.40;72.16
7834;BME280;3962;42.696;23.354;2023-04-01T01:45:26;94224.59;;;10.38;71.80
7834;BME280;3962;42.696;23.354;2023-04-01T01:47:54;94217.97;;;10.42;71.81
7834;BME280;3962;42.696;23.354;2023-04-01T01:50:23;94211.59;;;10.51;71.57
7834;BME280;3962;42.696;23.354;2023-04-01T01:53:00;94206.63;;;10.48;71.29
7834;BME280;3962;42.696;23.354;2023-04-01T01:55:29;94207.16;;;10.43;71.32
7834;BME280;3962;42.696;23.354;2023-04-01T01:57:57;94200.84;;;10.44;71.56
7834;BME280;3962;42.696;23.354;2023-04-01T02:00:26;94201.28;;;10.56;71.51
7834;BME280;3962;42.696;23.354;2023-04-01T02:02:53;94200.94;;;10.59;71.24
7834;BME280;3962;42.696;23.354;2023-04-01T02:05:24;94193.63;;;10.53;71.10
7834;BME280;3962;42.696;23.354;2023-04-01T02:07:57;94205.63;;;10.49;71.50
7834;BME280;3962;42.696;23.354;2023-04-01T02:10:28;94201.94;;;10.58;71.52
7834;BME280;3962;42.696;23.354;2023-04-01T02:13:01;94186.13;;;10.56;71.48
7834;BME280;3962;42.696;23.354;2023-04-01T02:15:37;94187.16;;;10.55;70.94
7834;BME280;3962;42.696;23.354;2023-04-01T02:18:07;94179.78;;;10.65;71.23
7834;BME280;3962;42.696;23.354;2023-04-01T02:20:39;94174.41;;;10.73;69.97
7834;BME280;3962;42.696;23.354;2023-04-01T02:23:07;94168.22;;;10.81;70.17
7834;BME280;3962;42.696;23.354;2023-04-01T02:25:35;94169.47;;;10.92;69.36
7834;BME280;3962;42.696;23.354;2023-04-01T02:28:05;94180.97;;;10.93;69.43
7834;BME280;3962;42.696;23.354;2023-04-01T02:30:35;94173.97;;;10.92;69.09
7834;BME280;3962;42.696;23.354;2023-04-01T02:33:03;94171.53;;;10.82;69.35
7834;BME280;3962;42.696;23.354;2023-04-01T02:35:33;94180.00;;;10.86;69.40
7834;BME280;3962;42.696;23.354;2023-04-01T02:38:02;94186.13;;;10.94;69.85
7834;BME280;3962;42.696;23.354;2023-04-01T02:40:29;94189.06;;;10.99;70.16
7834;BME280;3962;42.696;23.354;2023-04-01T02:43:06;94183.09;;;10.97;69.72
7834;BME280;3962;42.696;23.354;2023-04-01T02:45:33;94193.41;;;10.70;70.76
7834;BME280;3962;42.696;23.354;2023-04-01T02:48:00;94203.91;;;10.64;71.12
7834;BME280;3962;42.696;23.354;2023-04-01T02:50:27;94204.72;;;10.64;70.78
7834;BME280;3962;42.696;23.354;2023-04-01T02:52:54;94208.38;;;10.63;71.38
7834;BME280;3962;42.696;23.354;2023-04-01T02:55:22;94216.03;;;10.66;71.27
7834;BME280;3962;42.696;23.354;2023-04-01T02:57:49;94212.31;;;10.37;71.38
7834;BME280;3962;42.696;23.354;2023-04-01T03:00:17;94212.59;;;9.95;72.01
7834;BME280;3962;42.696;23.354;2023-04-01T03:02:44;94214.94;;;9.82;72.66
7834;BME280;3962;42.696;23.354;2023-04-01T03:05:11;94236.03;;;9.84;73.53
7834;BME280;3962;42.696;23.354;2023-04-01T03:07:38;94220.72;;;9.94;73.30
7834;BME280;3962;42.696;23.354;2023-04-01T03:10:06;94218.22;;;9.92;72.92
7834;BME280;3962;42.696;23.354;2023-04-01T03:12:34;94217.06;;;9.87;73.24
7834;BME280;3962;42.696;23.354;2023-04-01T03:15:01;94213.56;;;9.94;73.25
7834;BME280;3962;42.696;23.354;2023-04-01T03:17:28;94217.06;;;10.03;73.14
7834;BME280;3962;42.696;23.354;2023-04-01T03:19:55;94217.22;;;10.09;72.70
7834;BME280;3962;42.696;23.354;2023-04-01T03:22:22;94225.72;;;9.81;73.48
7834;BME280;3962;42.696;23.354;2023-04-01T03:24:49;94212.56;;;9.87;73.60
7834;BME280;3962;42.696;23.354;2023-04-01T03:27:16;94228.88;;;9.84;73.21
7834;BME280;3962;42.696;23.354;2023-04-01T03:29:44;94228.03;;;9.92;73.85
7834;BME280;3962;42.696;23.354;2023-04-01T03:32:11;94221.72;;;10.01;72.92
7834;BME280;3962;42.696;23.354;2023-04-01T03:34:37;94237.81;;;10.15;73.39
7834;BME280;3962;42.696;23.354;2023-04-01T03:37:04;94234.81;;;10.10;73.49
7834;BME280;3962;42.696;23.354;2023-04-01T03:39:31;94225.53;;;10.14;73.58
7834;BME280;3962;42.696;23.354;2023-04-01T03:41:59;94227.81;;;10.25;73.77
7834;BME280;3962;42.696;23.354;2023-04-01T03:44:26;94213.03;;;10.31;73.79
7834;BME280;3962;42.696;23.354;2023-04-01T03:46:54;94201.88;;;10.35;73.51
7834;BME280;3962;42.696;23.354;2023-04-01T03:49:21;94202.47;;;10.53;74.57
7834;BME280;3962;42.696;23.354;2023-04-01T03:51:48;94186.19;;;10.48;74.27
7834;BME280;3962;42.696;23.354;2023-04-01T03:54:14;94159.38;;;10.27;74.05
7834;BME280;3962;42.696;23.354;2023-04-01T03:56:42;94154.09;;;10.19;74.69
7834;BME280;3962;42.696;23.354;2023-04-01T03:59:09;94147.47;;;10.07;75.60
7834;BME280;3962;42.696;23.354;2023-04-01T04:01:36;94126.06;;;9.93;76.11
7834;BME280;3962;42.696;23.354;2023-04-01T04:04:04;94131.91;;;9.88;75.95
7834;BME280;3962;42.696;23.354;2023-04-01T04:06:32;94129.06;;;9.82;75.86
7834;BME280;3962;42.696;23.354;2023-04-01T04:08:59;94116.47;;;9.84;76.32
7834;BME280;3962;42.696;23.354;2023-04-01T04:11:26;94114.78;;;9.83;76.32
7834;BME280;3962;42.696;23.354;2023-04-01T04:13:53;94111.16;;;9.84;76.51
7834;BME280;3962;42.696;23.354;2023-04-01T04:16:20;94111.31;;;9.82;76.39
7834;BME280;3962;42.696;23.354;2023-04-01T04:18:46;94102.00;;;9.86;75.95
7834;BME280;3962;42.696;23.354;2023-04-01T04:21:15;94095.41;;;9.74;76.15
7834;BME280;3962;42.696;23.354;2023-04-01T04:23:42;94094.47;;;9.59;77.23
7834;BME280;3962;42.696;23.354;2023-04-01T04:26:11;94094.97;;;9.55;77.78
7834;BME280;3962;42.696;23.354;2023-04-01T04:28:38;94085.00;;;9.57;77.15
7834;BME280;3962;42.696;23.354;2023-04-01T04:31:06;94079.84;;;9.55;76.99
7834;BME280;3962;42.696;23.354;2023-04-01T04:33:33;94072.25;;;9.44;77.30
7834;BME280;3962;42.696;23.354;2023-04-01T04:36:01;94078.91;;;9.40;77.33
7834;BME280;3962;42.696;23.354;2023-04-01T04:38:30;94075.75;;;9.45;77.58
7834;BME280;3962;42.696;23.354;2023-04-01T04:40:57;94066.78;;;9.46;78.20
7834;BME280;3962;42.696;23.354;2023-04-01T04:43:24;94071.75;;;9.49;78.38
7834;BME280;3962;42.696;23.354;2023-04-01T04:45:51;94061.72;;;9.67;78.23
7834;BME280;3962;42.696;23.354;2023-04-01T04:48:18;94061.50;;;9.84;76.51
7834;BME280;3962;42.696;23.354;2023-04-01T04:50:46;94064.09;;;10.00;76.27
7834;BME280;3962;42.696;23.354;2023-04-01T04:53:14;94054.94;;;10.11;75.13
7834;BME280;3962;42.696;23.354;2023-04-01T04:55:47;94044.09;;;10.20;74.22
7834;BME280;3962;42.696;23.354;2023-04-01T04:58:14;94038.44;;;10.23;74.44
7834;BME280;3962;42.696;23.354;2023-04-01T05:00:41;94049.53;;;10.27;74.81
7834;BME280;3962;42.696;23.354;2023-04-01T05:03:09;94044.66;;;10.38;74.66
7834;BME280;3962;42.696;23.354;2023-04-01T05:05:36;94043.47;;;10.41;73.68
7834;BME280;3962;42.696;23.354;2023-04-01T05:08:03;94037.72;;;10.52;73.26
7834;BME280;3962;42.696;23.354;2023-04-01T05:10:30;94039.38;;;10.53;73.17
7834;BME280;3962;42.696;23.354;2023-04-01T05:12:58;94039.88;;;10.56;73.62
7834;BME280;3962;42.696;23.354;2023-04-01T05:15:25;94025.28;;;10.52;72.58
7834;BME280;3962;42.696;23.354;2023-04-01T05:17:52;94011.56;;;10.63;73.09
7834;BME280;3962;42.696;23.354;2023-04-01T05:20:19;94015.31;;;10.69;71.67
7834;BME280;3962;42.696;23.354;2023-04-01T05:22:45;94012.03;;;10.44;72.32
7834;BME280;3962;42.696;23.354;2023-04-01T05:25:12;94015.50;;;10.45;72.51
7834;BME280;3962;42.696;23.354;2023-04-01T05:27:39;93997.84;;;10.52;72.52
7834;BME280;3962;42.696;23.354;2023-04-01T05:30:09;93994.78;;;10.63;71.50
7834;BME280;3962;42.696;23.354;2023-04-01T05:32:36;94007.00;;;10.72;71.25
7834;BME280;3962;42.696;23.354;2023-04-01T05:35:03;94004.91;;;10.82;70.60
7834;BME280;3962;42.696;23.354;2023-04-01T05:37:30;94006.59;;;10.97;70.82
7834;BME280;3962;42.696;23.354;2023-04-01T05:39:57;94012.69;;;11.05;70.11
7834;BME280;3962;42.696;23.354;2023-04-01T05:42:24;94011.34;;;11.09;69.46
7834;BME280;3962;42.696;23.354;2023-04-01T05:44:51;94011.59;;;11.14;69.91
7834;BME280;3962;42.696;23.354;2023-04-01T05:47:20;94014.72;;;11.18;69.26
7834;BME280;3962;42.696;23.354;2023-04-01T05:49:47;93999.97;;;11.30;68.99
7834;BME280;3962;42.696;23.354;2023-04-01T05:52:13;93993.81;;;11.44;67.41
7834;BME280;3962;42.696;23.354;2023-04-01T05:54:41;93995.09;;;11.48;66.45
7834;BME280;3962;42.696;23.354;2023-04-01T05:57:08;93990.53;;;11.56;65.78
7834;BME280;3962;42.696;23.354;2023-04-01T05:59:35;93990.19;;;11.59;65.56
7834;BME280;3962;42.696;23.354;2023-04-01T06:02:02;93993.72;;;11.52;65.10
7834;BME280;3962;42.696;23.354;2023-04-01T06:04:34;93988.84;;;11.55;65.49
7834;BME280;3962;42.696;23.354;2023-04-01T06:07:08;93993.31;;;11.63;65.18
7834;BME280;3962;42.696;23.354;2023-04-01T06:09:37;93989.34;;;11.73;64.49
7834;BME280;3962;42.696;23.354;2023-04-01T06:15:23;93996.78;;;12.28;63.79
7834;BME280;3962;42.696;23.354;2023-04-01T06:18:03;93984.66;;;12.46;62.26
7834;BME280;3962;42.696;23.354;2023-04-01T06:20:42;93983.81;;;12.46;62.63
7834;BME280;3962;42.696;23.354;2023-04-01T06:23:24;94001.75;;;12.73;63.58
7834;BME280;3962;42.696;23.354;2023-04-01T06:26:05;93994.66;;;13.28;61.91
7834;BME280;3962;42.696;23.354;2023-04-01T06:28:59;93996.06;;;13.24;60.41
7834;BME280;3962;42.696;23.354;2023-04-01T06:31:44;94000.44;;;13.04;60.43
7834;BME280;3962;42.696;23.354;2023-04-01T06:34:25;93995.66;;;13.00;61.13
7834;BME280;3962;42.696;23.354;2023-04-01T06:37:08;93977.81;;;13.00;60.94
7834;BME280;3962;42.696;23.354;2023-04-01T06:39:53;93991.94;;;12.94;61.12
7834;BME280;3962;42.696;23.354;2023-04-01T06:42:34;93975.19;;;12.86;62.07
7834;BME280;3962;42.696;23.354;2023-04-01T06:45:14;93973.28;;;12.80;61.68
7834;BME280;3962;42.696;23.354;2023-04-01T06:47:52;93968.31;;;12.77;62.94
7834;BME280;3962;42.696;23.354;2023-04-01T06:50:29;93966.50;;;12.77;63.00
7834;BME280;3962;42.696;23.354;2023-04-01T06:53:02;93963.66;;;12.79;63.08
7834;BME280;3962;42.696;23.354;2023-04-01T06:55:36;93959.22;;;12.92;63.16
7834;BME280;3962;42.696;23.354;2023-04-01T06:58:15;93945.38;;;13.03;62.56
7834;BME280;3962;42.696;23.354;2023-04-01T07:00:48;93928.81;;;12.87;63.12
7834;BME280;3962;42.696;23.354;2023-04-01T07:03:20;93940.06;;;12.82;64.86
7834;BME280;3962;42.696;23.354;2023-04-01T07:05:48;93941.28;;;12.80;64.04
7834;BME280;3962;42.696;23.354;2023-04-01T07:08:21;93944.16;;;12.85;64.42
7834;BME280;3962;42.696;23.354;2023-04-01T07:10:52;93952.75;;;13.01;64.61
7834;BME280;3962;42.696;23.354;2023-04-01T07:13:25;93946.34;;;13.23;64.08
7834;BME280;3962;42.696;23.354;2023-04-01T07:16:03;93925.47;;;13.33;64.20
7834;BME280;3962;42.696;23.354;2023-04-01T07:18:37;93921.22;;;13.45;64.08
7834;BME280;3962;42.696;23.354;2023-04-01T07:21:12;93918.22;;;13.61;64.07
7834;BME280;3962;42.696;23.354;2023-04-01T07:23:47;93931.75;;;13.53;64.24
7834;BME280;3962;42.696;23.354;2023-04-01T07:26:18;93926.19;;;13.55;65.05
7834;BME280;3962;42.696;23.354;2023-04-01T07:28:46;93929.69;;;13.55;64.98
7834;BME280;3962;42.696;23.354;2023-04-01T07:31:20;93931.94;;;13.52;64.74
7834;BME280;3962;42.696;23.354;2023-04-01T07:33:58;93932.03;;;13.71;63.88
7834;BME280;3962;42.696;23.354;2023-04-01T07:36:33;93935.63;;;13.91;63.20
7834;BME280;3962;42.696;23.354;2023-04-01T07:39:12;93938.78;;;14.14;62.68
7834;BME280;3962;42.696;23.354;2023-04-01T07:41:50;93927.75;;;14.24;62.52
7834;BME280;3962;42.696;23.354;2023-04-01T07:44:25;93933.34;;;14.42;62.44
7834;BME280;3962;42.696;23.354;2023-04-01T07:47:21;93928.44;;;14.65;60.89
7834;BME280;3962;42.696;23.354;2023-04-01T07:50:02;93917.53;;;14.60;60.14
7834;BME280;3962;42.696;23.354;2023-04-01T07:52:35;93922.47;;;14.69;60.11
7834;BME280;3962;42.696;23.354;2023-04-01T07:55:12;93922.47;;;14.88;59.89
7834;BME280;3962;42.696;23.354;2023-04-01T07:57:48;93922.06;;;14.98;58.77
7834;BME280;3962;42.696;23.354;2023-04-01T08:00:20;93917.34;;;14.87;57.89
7834;BME280;3962;42.696;23.354;2023-04-01T08:02:59;93922.91;;;14.79;58.81
7834;BME280;3962;42.696;23.354;2023-04-01T08:05:36;93902.28;;;14.79;58.43
7834;BME280;3962;42.696;23.354;2023-04-01T08:08:11;93908.06;;;14.83;58.50
7834;BME280;3962;42.696;23.354;2023-04-01T08:10:49;93897.56;;;14.75;58.28
7834;BME280;3962;42.696;23.354;2023-04-01T08:13:26;93881.50;;;14.75;58.65
7834;BME280;3962;42.696;23.354;2023-04-01T08:16:05;93886.84;;;14.94;57.67
7834;BME280;3962;42.696;23.354;2023-04-01T08:18:39;93883.34;;;15.07;58.03
7834;BME280;3962;42.696;23.354;2023-04-01T08:21:10;93874.25;;;15.21;57.59
7834;BME280;3962;42.696;23.354;2023-04-01T08:23:41;93866.78;;;15.29;57.18
7834;BME280;3962;42.696;23.354;2023-04-01T08:26:16;93873.38;;;15.53;57.00
7834;BME280;3962;42.696;23.354;2023-04-01T08:28:50;93876.78;;;15.79;56.96
7834;BME280;3962;42.696;23.354;2023-04-01T08:31:21;93879.81;;;15.96;56.09
7834;BME280;3962;42.696;23.354;2023-04-01T08:33:53;93868.69;;;15.92;56.33
7834;BME280;3962;42.696;23.354;2023-04-01T08:36:23;93851.53;;;16.00;56.29
7834;BME280;3962;42.696;23.354;2023-04-01T08:38:53;93847.09;;;16.18;55.32
7834;BME280;3962;42.696;23.354;2023-04-01T08:41:38;93838.84;;;16.51;54.34
7834;BME280;3962;42.696;23.354;2023-04-01T08:44:34;93823.16;;;16.17;53.03
7834;BME280;3962;42.696;23.354;2023-04-01T08:47:35;93816.47;;;16.32;51.96
7834;BME280;3962;42.696;23.354;2023-04-01T08:50:33;93804.34;;;16.79;51.25
7834;BME280;3962;42.696;23.354;2023-04-01T08:53:06;93798.81;;;17.34;50.03
7834;BME280;3962;42.696;23.354;2023-04-01T08:55:44;93806.44;;;18.21;47.88
7834;BME280;3962;42.696;23.354;2023-04-01T08:58:26;93800.50;;;18.01;47.74
7834;BME280;3962;42.696;23.354;2023-04-01T09:01:11;93799.53;;;17.95;48.05
7834;BME280;3962;42.696;23.354;2023-04-01T09:04:06;93819.44;;;18.42;46.37
7834;BME280;3962;42.696;23.354;2023-04-01T09:06:50;93826.94;;;18.92;45.95
7834;BME280;3962;42.696;23.354;2023-04-01T09:09:55;93823.59;;;18.67;44.86
7834;BME280;3962;42.696;23.354;2023-04-01T09:13:08;93818.44;;;18.07;44.58
7834;BME280;3962;42.696;23.354;2023-04-01T09:15:58;93811.81;;;17.73;45.89
7834;BME280;3962;42.696;23.354;2023-04-01T09:21:51;93798.69;;;17.83;45.81
7834;BME280;3962;42.696;23.354;2023-04-01T09:25:02;93798.59;;;17.90;44.40
7834;BME280;3962;42.696;23.354;2023-04-01T09:27:37;93803.06;;;17.96;44.36
7834;BME280;3962;42.696;23.354;2023-04-01T09:30:40;93794.69;;;17.86;44.63
7834;BME280;3962;42.696;23.354;2023-04-01T09:36:31;93779.19;;;17.52;44.36
7834;BME280;3962;42.696;23.354;2023-04-01T09:39:17;93776.69;;;17.39;44.65
7834;BME280;3962;42.696;23.354;2023-04-01T09:42:14;93766.41;;;17.29;45.41
7834;BME280;3962;42.696;23.354;2023-04-01T09:44:47;93763.84;;;17.34;45.47
7834;BME280;3962;42.696;23.354;2023-04-01T09:47:33;93758.47;;;17.34;45.78
7834;BME280;3962;42.696;23.354;2023-04-01T09:50:31;93750.81;;;17.20;45.46
7834;BME280;3962;42.696;23.354;2023-04-01T09:53:11;93736.47;;;17.08;47.26
7834;BME280;3962;42.696;23.354;2023-04-01T09:59:08;93726.31;;;17.10;47.30
7834;BME280;3962;42.696;23.354;2023-04-01T10:02:08;93719.13;;;17.22;47.48
7834;BME280;3962;42.696;23.354;2023-04-01T10:05:08;93732.88;;;17.32;47.74
7834;BME280;3962;42.696;23.354;2023-04-01T10:10:52;93718.81;;;17.36;47.99
7834;BME280;3962;42.696;23.354;2023-04-01T10:20:01;93708.31;;;17.10;48.86
7834;BME280;3962;42.696;23.354;2023-04-01T10:22:51;93710.34;;;16.97;49.45
7834;BME280;3962;42.696;23.354;2023-04-01T10:34:46;93692.19;;;16.56;50.41
7834;BME280;3962;42.696;23.354;2023-04-01T10:37:39;93687.59;;;16.39;50.68
7834;BME280;3962;42.696;23.354;2023-04-01T10:40:25;93690.91;;;16.34;51.05
7834;BME280;3962;42.696;23.354;2023-04-01T10:43:34;93688.41;;;16.39;51.74
7834;BME280;3962;42.696;23.354;2023-04-01T10:46:21;93682.59;;;16.42;51.03
7834;BME280;3962;42.696;23.354;2023-04-01T10:52:40;93663.88;;;16.29;51.28
7834;BME280;3962;42.696;23.354;2023-04-01T10:55:34;93667.03;;;16.26;51.14
7834;BME280;3962;42.696;23.354;2023-04-01T10:58:40;93665.97;;;16.27;50.87
7834;BME280;3962;42.696;23.354;2023-04-01T11:01:32;93653.53;;;16.33;50.79
7834;BME280;3962;42.696;23.354;2023-04-01T11:13:40;93634.13;;;16.55;49.68
7834;BME280;3962;42.696;23.354;2023-04-01T11:16:47;93638.78;;;16.48;49.67
7834;BME280;3962;42.696;23.354;2023-04-01T11:22:50;93643.31;;;16.48;49.92
7834;BME280;3962;42.696;23.354;2023-04-01T11:25:42;93647.63;;;16.49;50.04
7834;BME280;3962;42.696;23.354;2023-04-01T11:28:27;93660.59;;;16.52;49.79
7834;BME280;3962;42.696;23.354;2023-04-01T11:31:18;93677.81;;;16.44;50.03
7834;BME280;3962;42.696;23.354;2023-04-01T11:33:54;93707.94;;;16.46;50.49
7834;BME280;3962;42.696;23.354;2023-04-01T11:36:37;93710.09;;;16.38;51.86
7834;BME280;3962;42.696;23.354;2023-04-01T11:39:17;93728.38;;;16.23;51.19
7834;BME280;3962;42.696;23.354;2023-04-01T11:41:52;93762.44;;;15.91;55.24
7834;BME280;3962;42.696;23.354;2023-04-01T11:44:25;93747.88;;;15.74;57.06
7834;BME280;3962;42.696;23.354;2023-04-01T11:47:09;93803.09;;;15.51;58.36
7834;BME280;3962;42.696;23.354;2023-04-01T11:49:51;93820.50;;;15.03;63.84
7834;BME280;3962;42.696;23.354;2023-04-01T11:52:37;93843.16;;;14.29;68.30
7834;BME280;3962;42.696;23.354;2023-04-01T11:55:28;93864.34;;;13.58;74.21
7834;BME280;3962;42.696;23.354;2023-04-01T12:01:26;93893.84;;;12.54;81.84
7834;BME280;3962;42.696;23.354;2023-04-01T12:07:05;93919.56;;;12.20;84.76
7834;BME280;3962;42.696;23.354;2023-04-01T12:09:41;93903.56;;;12.20;86.12
7834;BME280;3962;42.696;23.354;2023-04-01T12:12:18;93894.75;;;12.19;86.25
7834;BME280;3962;42.696;23.354;2023-04-01T12:14:59;93894.97;;;12.24;87.05
7834;BME280;3962;42.696;23.354;2023-04-01T12:17:34;93891.56;;;12.30;89.32
7834;BME280;3962;42.696;23.354;2023-04-01T12:20:22;93880.50;;;12.33;89.85
7834;BME280;3962;42.696;23.354;2023-04-01T12:23:02;93894.28;;;12.58;90.34
7834;BME280;3962;42.696;23.354;2023-04-01T12:25:56;93894.56;;;12.69;90.56
7834;BME280;3962;42.696;23.354;2023-04-01T12:28:39;93899.94;;;12.76;88.90
7834;BME280;3962;42.696;23.354;2023-04-01T12:31:25;93899.91;;;12.69;88.95
7834;BME280;3962;42.696;23.354;2023-04-01T12:34:16;93911.22;;;12.71;89.00
7834;BME280;3962;42.696;23.354;2023-04-01T12:36:58;93924.72;;;12.21;90.20
7834;BME280;3962;42.696;23.354;2023-04-01T12:39:43;93926.53;;;12.21;90.13
7834;BME280;3962;42.696;23.354;2023-04-01T12:42:30;93913.22;;;11.85;90.49
7834;BME280;3962;42.696;23.354;2023-04-01T12:45:17;93919.63;;;11.91;90.51
7834;BME280;3962;42.696;23.354;2023-04-01T12:51:14;93898.88;;;11.65;90.23
7834;BME280;3962;42.696;23.354;2023-04-01T12:54:22;93900.03;;;11.77;89.84
7834;BME280;3962;42.696;23.354;2023-04-01T12:57:01;93898.53;;;11.89;89.24
7834;BME280;3962;42.696;23.354;2023-04-01T12:59:51;93892.41;;;11.95;89.27
7834;BME280;3962;42.696;23.354;2023-04-01T13:02:36;93875.81;;;12.14;88.44
7834;BME280;3962;42.696;23.354;2023-04-01T13:05:24;93862.97;;;12.24;88.36
7834;BME280;3962;42.696;23.354;2023-04-01T13:08:13;93859.69;;;12.22;88.99
7834;BME280;3962;42.696;23.354;2023-04-01T13:11:02;93865.97;;;12.36;88.01
7834;BME280;3962;42.696;23.354;2023-04-01T13:13:51;93835.59;;;12.37;87.69
7834;BME280;3962;42.696;23.354;2023-04-01T13:16:24;93828.91;;;12.47;87.33
7834;BME280;3962;42.696;23.354;2023-04-01T13:19:00;93824.13;;;12.36;87.69
7834;BME280;3962;42.696;23.354;2023-04-01T13:21:42;93844.94;;;12.26;90.03
7834;BME280;3962;42.696;23.354;2023-04-01T13:27:07;93821.38;;;12.30;88.29
7834;BME280;3962;42.696;23.354;2023-04-01T13:29:40;93815.44;;;12.55;87.64
7834;BME280;3962;42.696;23.354;2023-04-01T13:32:23;93800.88;;;12.85;86.40
7834;BME280;3962;42.696;23.354;2023-04-01T13:35:10;93795.06;;;13.03;85.46
7834;BME280;3962;42.696;23.354;2023-04-01T13:37:52;93783.63;;;13.28;84.59
7834;BME280;3962;42.696;23.354;2023-04-01T13:40:28;93783.84;;;13.27;84.59
7834;BME280;3962;42.696;23.354;2023-04-01T13:43:04;93779.84;;;13.03;84.59
7834;BME280;3962;42.696;23.354;2023-04-01T13:45:48;93779.66;;;12.71;84.34
7834;BME280;3962;42.696;23.354;2023-04-01T13:48:32;93774.03;;;12.32;86.08
7834;BME280;3962;42.696;23.354;2023-04-01T13:51:29;93770.19;;;12.13;86.74
7834;BME280;3962;42.696;23.354;2023-04-01T13:54:24;93768.59;;;12.19;86.48
7834;BME280;3962;42.696;23.354;2023-04-01T13:57:06;93758.31;;;12.43;86.43
7834;BME280;3962;42.696;23.354;2023-04-01T14:00:16;93762.97;;;12.96;85.07
7834;BME280;3962;42.696;23.354;2023-04-01T14:06:00;93760.44;;;13.35;81.17
7834;BME280;3962;42.696;23.354;2023-04-01T14:08:42;93748.31;;;13.33;80.69
7834;BME280;3962;42.696;23.354;2023-04-01T14:11:18;93739.50;;;13.32;81.15
7834;BME280;3962;42.696;23.354;2023-04-01T14:14:02;93746.09;;;13.43;79.85
7834;BME280;3962;42.696;23.354;2023-04-01T14:17:00;93735.47;;;13.62;79.31
7834;BME280;3962;42.696;23.354;2023-04-01T14:20:00;93737.91;;;13.57;79.12
7834;BME280;3962;42.696;23.354;2023-04-01T14:22:37;93731.97;;;13.68;77.69
7834;BME280;3962;42.696;23.354;2023-04-01T14:25:38;93700.28;;;13.52;77.37
7834;BME280;3962;42.696;23.354;2023-04-01T14:28:18;93688.75;;;13.32;77.63
7834;BME280;3962;42.696;23.354;2023-04-01T14:31:04;93690.44;;;13.59;78.06
7834;BME280;3962;42.696;23.354;2023-04-01T14:33:41;93682.63;;;13.90;75.87
7834;BME280;3962;42.696;23.354;2023-04-01T14:36:31;93686.13;;;13.84;75.53
7834;BME280;3962;42.696;23.354;2023-04-01T14:39:19;93701.19;;;14.31;75.10
7834;BME280;3962;42.696;23.354;2023-04-01T14:42:03;93699.19;;;14.96;72.41
7834;BME280;3962;42.696;23.354;2023-04-01T14:44:52;93699.31;;;15.14;70.58
7834;BME280;3962;42.696;23.354;2023-04-01T14:47:34;93698.38;;;14.82;70.20
7834;BME280;3962;42.696;23.354;2023-04-01T14:50:10;93697.47;;;15.14;70.14
7834;BME280;3962;42.696;23.354;2023-04-01T14:52:43;93706.66;;;15.25;69.63
7834;BME280;3962;42.696;23.354;2023-04-01T14:55:28;93696.25;;;15.04;69.46
7834;BME280;3962;42.696;23.354;2023-04-01T14:57:59;93709.09;;;14.76;70.75
7834;BME280;3962;42.696;23.354;2023-04-01T15:00:46;93708.53;;;14.55;70.95
7834;BME280;3962;42.696;23.354;2023-04-01T15:03:20;93708.94;;;14.71;70.56
7834;BME280;3962;42.696;23.354;2023-04-01T15:05:52;93706.03;;;14.73;68.76
7834;BME280;3962;42.696;23.354;2023-04-01T15:08:23;93712.00;;;14.81;68.38